Terminal Aerodrome Forecast
Issued by NWS Quad Cities IA IL

Home | Current Version | Previous Version | Graphics & Text | Print | Product List | Glossary On
Versions: 1 2 3 4 5 6 7 8 9 10 11 12 13 14 15 16 17
000
FTUS43 KDVN 030520
TAFMLI
TAF
KMLI 030520Z 0306/0406 26010KT P6SM SCT040
     FM030700 30007KT P6SM SCT250
     FM031200 33007KT P6SM SKC
     FM031900 30010KT P6SM SCT060
     FM040100 29004KT P6SM SKC=

USA.gov is the U.S. government's official web portal to all federal, state and local government web resources and services.